sensor_id;sensor_type;location;lat;lon;timestamp;temperature;humidity
38726;DHT22;24474;48.906;8.808;2022-12-20T00:02:11;6.90;99.90
38726;DHT22;24474;48.906;8.808;2022-12-20T00:04:36;6.80;99.90
38726;DHT22;24474;48.906;8.808;2022-12-20T00:07:02;6.90;99.90
38726;DHT22;24474;48.906;8.808;2022-12-20T00:09:28;6.90;99.90
38726;DHT22;24474;48.906;8.808;2022-12-20T00:11:54;6.90;99.90
38726;DHT22;24474;48.906;8.808;2022-12-20T00:14:19;7.00;99.90
38726;DHT22;24474;48.906;8.808;2022-12-20T00:16:45;7.00;99.90
38726;DHT22;24474;48.906;8.808;2022-12-20T00:19:11;6.90;99.90
38726;DHT22;24474;48.906;8.808;2022-12-20T00:21:39;7.10;99.90
38726;DHT22;24474;48.906;8.808;2022-12-20T00:24:05;7.00;99.90
38726;DHT22;24474;48.906;8.808;2022-12-20T00:26:33;7.00;99.90
38726;DHT22;24474;48.906;8.808;2022-12-20T00:28:59;7.10;99.90
38726;DHT22;24474;48.906;8.808;2022-12-20T00:31:27;7.10;99.90
38726;DHT22;24474;48.906;8.808;2022-12-20T00:33:54;7.10;99.90
38726;DHT22;24474;48.906;8.808;2022-12-20T00:36:22;7.00;99.90
38726;DHT22;24474;48.906;8.808;2022-12-20T00:38:49;7.00;99.90
38726;DHT22;24474;48.906;8.808;2022-12-20T00:41:18;7.10;99.90
38726;DHT22;24474;48.906;8.808;2022-12-20T00:43:45;7.20;99.90
38726;DHT22;24474;48.906;8.808;2022-12-20T00:46:12;7.10;99.90
38726;DHT22;24474;48.906;8.808;2022-12-20T00:48:38;7.10;99.90
38726;DHT22;24474;48.906;8.808;2022-12-20T00:51:09;7.10;99.90
38726;DHT22;24474;48.906;8.808;2022-12-20T00:53:36;7.10;99.90
38726;DHT22;24474;48.906;8.808;2022-12-20T00:56:03;7.10;99.90
38726;DHT22;24474;48.906;8.808;2022-12-20T00:58:30;7.20;99.90
38726;DHT22;24474;48.906;8.808;2022-12-20T01:00:56;7.30;99.90
38726;DHT22;24474;48.906;8.808;2022-12-20T01:03:21;7.20;99.90
38726;DHT22;24474;48.906;8.808;2022-12-20T01:09:10;7.20;99.90
38726;DHT22;24474;48.906;8.808;2022-12-20T01:11:37;7.30;99.90
38726;DHT22;24474;48.906;8.808;2022-12-20T01:14:10;7.20;99.90
38726;DHT22;24474;48.906;8.808;2022-12-20T01:16:41;7.20;99.90
38726;DHT22;24474;48.906;8.808;2022-12-20T01:19:09;7.20;99.90
38726;DHT22;24474;48.906;8.808;2022-12-20T01:21:35;7.10;99.90
38726;DHT22;24474;48.906;8.808;2022-12-20T01:24:01;7.20;99.90
38726;DHT22;24474;48.906;8.808;2022-12-20T01:26:28;7.20;99.90
38726;DHT22;24474;48.906;8.808;2022-12-20T01:28:56;7.20;99.90
38726;DHT22;24474;48.906;8.808;2022-12-20T01:31:26;7.30;99.90
38726;DHT22;24474;48.906;8.808;2022-12-20T01:33:52;7.30;99.90
38726;DHT22;24474;48.906;8.808;2022-12-20T01:36:23;7.30;99.90
38726;DHT22;24474;48.906;8.808;2022-12-20T01:38:50;7.30;99.90
38726;DHT22;24474;48.906;8.808;2022-12-20T01:41:17;7.40;99.90
38726;DHT22;24474;48.906;8.808;2022-12-20T01:43:50;7.40;99.90
38726;DHT22;24474;48.906;8.808;2022-12-20T01:46:16;7.40;99.90
38726;DHT22;24474;48.906;8.808;2022-12-20T01:48:47;7.40;99.90
38726;DHT22;24474;48.906;8.808;2022-12-20T01:51:14;7.40;99.90
38726;DHT22;24474;48.906;8.808;2022-12-20T01:53:40;7.30;99.90
38726;DHT22;24474;48.906;8.808;2022-12-20T01:56:07;7.30;99.90
38726;DHT22;24474;48.906;8.808;2022-12-20T01:58:35;7.40;99.90
38726;DHT22;24474;48.906;8.808;2022-12-20T02:01:01;7.40;99.90
38726;DHT22;24474;48.906;8.808;2022-12-20T02:03:29;7.40;99.90
38726;DHT22;24474;48.906;8.808;2022-12-20T02:05:55;7.40;99.90
38726;DHT22;24474;48.906;8.808;2022-12-20T02:08:21;7.40;99.90
38726;DHT22;24474;48.906;8.808;2022-12-20T02:11:31;7.40;99.90
38726;DHT22;24474;48.906;8.808;2022-12-20T02:19:48;7.40;99.90
38726;DHT22;24474;48.906;8.808;2022-12-20T02:30:51;7.30;99.90
38726;DHT22;24474;48.906;8.808;2022-12-20T02:33:20;7.30;99.90
38726;DHT22;24474;48.906;8.808;2022-12-20T02:35:46;7.20;99.90
38726;DHT22;24474;48.906;8.808;2022-12-20T02:38:36;7.30;99.90
38726;DHT22;24474;48.906;8.808;2022-12-20T02:41:29;7.30;99.90
38726;DHT22;24474;48.906;8.808;2022-12-20T02:44:00;7.30;99.90
38726;DHT22;24474;48.906;8.808;2022-12-20T02:46:46;7.20;99.90
38726;DHT22;24474;48.906;8.808;2022-12-20T02:49:17;7.30;99.90
38726;DHT22;24474;48.906;8.808;2022-12-20T02:51:46;7.30;99.90
38726;DHT22;24474;48.906;8.808;2022-12-20T02:54:14;7.30;99.90
38726;DHT22;24474;48.906;8.808;2022-12-20T02:56:54;7.20;99.90
38726;DHT22;24474;48.906;8.808;2022-12-20T02:59:28;7.20;99.90
38726;DHT22;24474;48.906;8.808;2022-12-20T03:01:56;7.30;99.90
38726;DHT22;24474;48.906;8.808;2022-12-20T03:04:27;7.40;99.90
38726;DHT22;24474;48.906;8.808;2022-12-20T03:07:03;7.40;99.90
38726;DHT22;24474;48.906;8.808;2022-12-20T03:09:30;7.30;99.90
38726;DHT22;24474;48.906;8.808;2022-12-20T03:11:59;7.30;99.90
38726;DHT22;24474;48.906;8.808;2022-12-20T03:14:25;7.40;99.90
38726;DHT22;24474;48.906;8.808;2022-12-20T03:16:51;7.40;99.90
38726;DHT22;24474;48.906;8.808;2022-12-20T03:19:18;7.30;99.90
38726;DHT22;24474;48.906;8.808;2022-12-20T03:21:44;7.30;99.90
38726;DHT22;24474;48.906;8.808;2022-12-20T03:24:09;7.30;99.90
38726;DHT22;24474;48.906;8.808;2022-12-20T03:26:36;7.20;99.90
38726;DHT22;24474;48.906;8.808;2022-12-20T03:29:02;7.30;99.90
38726;DHT22;24474;48.906;8.808;2022-12-20T03:31:28;7.30;99.90
38726;DHT22;24474;48.906;8.808;2022-12-20T03:33:54;7.30;99.90
38726;DHT22;24474;48.906;8.808;2022-12-20T03:36:20;7.20;99.90
38726;DHT22;24474;48.906;8.808;2022-12-20T03:38:49;7.20;99.90
38726;DHT22;24474;48.906;8.808;2022-12-20T03:41:14;7.20;99.90
38726;DHT22;24474;48.906;8.808;2022-12-20T03:43:40;7.20;99.90
38726;DHT22;24474;48.906;8.808;2022-12-20T03:46:06;7.20;99.90
38726;DHT22;24474;48.906;8.808;2022-12-20T03:48:31;7.20;99.90
38726;DHT22;24474;48.906;8.808;2022-12-20T03:50:57;7.20;99.90
38726;DHT22;24474;48.906;8.808;2022-12-20T03:53:23;7.20;99.90
38726;DHT22;24474;48.906;8.808;2022-12-20T03:55:48;7.20;99.90
38726;DHT22;24474;48.906;8.808;2022-12-20T03:58:14;7.20;99.90
38726;DHT22;24474;48.906;8.808;2022-12-20T04:00:39;7.20;99.90
38726;DHT22;24474;48.906;8.808;2022-12-20T04:03:05;7.20;99.90
38726;DHT22;24474;48.906;8.808;2022-12-20T04:05:31;7.30;99.90
38726;DHT22;24474;48.906;8.808;2022-12-20T04:07:57;7.30;99.90
38726;DHT22;24474;48.906;8.808;2022-12-20T04:10:22;7.10;99.90
38726;DHT22;24474;48.906;8.808;2022-12-20T04:12:48;7.30;99.90
38726;DHT22;24474;48.906;8.808;2022-12-20T04:15:14;7.30;99.90
38726;DHT22;24474;48.906;8.808;2022-12-20T04:17:39;7.20;99.90
38726;DHT22;24474;48.906;8.808;2022-12-20T04:20:06;7.30;99.90
38726;DHT22;24474;48.906;8.808;2022-12-20T04:22:48;7.20;99.90
38726;DHT22;24474;48.906;8.808;2022-12-20T04:25:17;7.20;99.90
38726;DHT22;24474;48.906;8.808;2022-12-20T04:27:43;7.30;99.90
38726;DHT22;24474;48.906;8.808;2022-12-20T04:30:10;7.20;99.90
38726;DHT22;24474;48.906;8.808;2022-12-20T04:32:36;7.30;99.90
38726;DHT22;24474;48.906;8.808;2022-12-20T04:35:01;7.40;99.90
38726;DHT22;24474;48.906;8.808;2022-12-20T04:37:30;7.20;99.90
38726;DHT22;24474;48.906;8.808;2022-12-20T04:39:56;7.30;99.90
38726;DHT22;24474;48.906;8.808;2022-12-20T04:42:23;7.30;99.90
38726;DHT22;24474;48.906;8.808;2022-12-20T04:44:52;7.30;99.90
38726;DHT22;24474;48.906;8.808;2022-12-20T04:47:17;7.40;99.90
38726;DHT22;24474;48.906;8.808;2022-12-20T04:49:43;7.40;99.90
38726;DHT22;24474;48.906;8.808;2022-12-20T04:52:09;7.30;99.90
38726;DHT22;24474;48.906;8.808;2022-12-20T04:54:53;7.30;99.90
38726;DHT22;24474;48.906;8.808;2022-12-20T04:57:19;7.40;99.90
38726;DHT22;24474;48.906;8.808;2022-12-20T04:59:44;7.40;99.90
38726;DHT22;24474;48.906;8.808;2022-12-20T05:02:10;7.30;99.90
38726;DHT22;24474;48.906;8.808;2022-12-20T05:04:36;7.40;99.90
38726;DHT22;24474;48.906;8.808;2022-12-20T05:07:02;7.40;99.90
38726;DHT22;24474;48.906;8.808;2022-12-20T05:09:27;7.40;99.90
38726;DHT22;24474;48.906;8.808;2022-12-20T05:11:53;7.40;99.90
38726;DHT22;24474;48.906;8.808;2022-12-20T05:14:18;7.50;99.90
38726;DHT22;24474;48.906;8.808;2022-12-20T05:16:44;7.40;99.90
38726;DHT22;24474;48.906;8.808;2022-12-20T05:19:10;7.40;99.90
38726;DHT22;24474;48.906;8.808;2022-12-20T05:21:35;7.40;99.90
38726;DHT22;24474;48.906;8.808;2022-12-20T05:24:23;7.40;99.90
38726;DHT22;24474;48.906;8.808;2022-12-20T05:27:07;7.40;99.90
38726;DHT22;24474;48.906;8.808;2022-12-20T05:29:33;7.50;99.90
38726;DHT22;24474;48.906;8.808;2022-12-20T05:31:58;7.50;99.90
38726;DHT22;24474;48.906;8.808;2022-12-20T05:34:24;7.50;99.90
38726;DHT22;24474;48.906;8.808;2022-12-20T05:36:50;7.40;99.90
38726;DHT22;24474;48.906;8.808;2022-12-20T05:39:17;7.60;99.90
38726;DHT22;24474;48.906;8.808;2022-12-20T05:41:43;7.50;99.90
38726;DHT22;24474;48.906;8.808;2022-12-20T05:44:08;7.50;99.90
38726;DHT22;24474;48.906;8.808;2022-12-20T05:46:34;7.40;99.90
38726;DHT22;24474;48.906;8.808;2022-12-20T05:49:00;7.50;99.90
38726;DHT22;24474;48.906;8.808;2022-12-20T05:51:26;7.50;99.90
38726;DHT22;24474;48.906;8.808;2022-12-20T05:53:54;7.50;99.90
38726;DHT22;24474;48.906;8.808;2022-12-20T05:56:20;7.60;99.90
38726;DHT22;24474;48.906;8.808;2022-12-20T05:58:45;7.50;99.90
38726;DHT22;24474;48.906;8.808;2022-12-20T06:01:11;7.70;99.90
38726;DHT22;24474;48.906;8.808;2022-12-20T06:03:40;7.60;99.90
38726;DHT22;24474;48.906;8.808;2022-12-20T06:06:06;7.60;99.90
38726;DHT22;24474;48.906;8.808;2022-12-20T06:08:32;7.60;99.90
38726;DHT22;24474;48.906;8.808;2022-12-20T06:10:57;7.60;99.90
38726;DHT22;24474;48.906;8.808;2022-12-20T06:13:26;7.60;99.90
38726;DHT22;24474;48.906;8.808;2022-12-20T06:15:52;7.60;99.90
38726;DHT22;24474;48.906;8.808;2022-12-20T06:18:18;7.60;99.90
38726;DHT22;24474;48.906;8.808;2022-12-20T06:20:51;7.60;99.90
38726;DHT22;24474;48.906;8.808;2022-12-20T06:23:19;7.70;99.90
38726;DHT22;24474;48.906;8.808;2022-12-20T06:25:45;7.70;99.90
38726;DHT22;24474;48.906;8.808;2022-12-20T06:28:11;7.60;99.90
38726;DHT22;24474;48.906;8.808;2022-12-20T06:30:36;7.60;99.90
38726;DHT22;24474;48.906;8.808;2022-12-20T06:33:02;7.60;99.90
38726;DHT22;24474;48.906;8.808;2022-12-20T06:35:29;7.60;99.90
38726;DHT22;24474;48.906;8.808;2022-12-20T06:37:55;7.70;99.90
38726;DHT22;24474;48.906;8.808;2022-12-20T06:40:20;7.60;99.90
38726;DHT22;24474;48.906;8.808;2022-12-20T06:42:46;7.50;99.90
38726;DHT22;24474;48.906;8.808;2022-12-20T06:45:12;7.60;99.90
38726;DHT22;24474;48.906;8.808;2022-12-20T06:47:38;7.70;99.90
38726;DHT22;24474;48.906;8.808;2022-12-20T06:50:04;7.70;99.90
38726;DHT22;24474;48.906;8.808;2022-12-20T06:52:30;7.70;99.90
38726;DHT22;24474;48.906;8.808;2022-12-20T06:54:56;7.70;99.90
38726;DHT22;24474;48.906;8.808;2022-12-20T06:57:22;7.70;99.90
38726;DHT22;24474;48.906;8.808;2022-12-20T06:59:48;7.70;99.90
38726;DHT22;24474;48.906;8.808;2022-12-20T07:02:14;7.80;99.90
38726;DHT22;24474;48.906;8.808;2022-12-20T07:04:39;7.70;99.90
38726;DHT22;24474;48.906;8.808;2022-12-20T07:07:05;7.80;99.90
38726;DHT22;24474;48.906;8.808;2022-12-20T07:09:32;7.70;99.90
38726;DHT22;24474;48.906;8.808;2022-12-20T07:11:57;7.80;99.90
38726;DHT22;24474;48.906;8.808;2022-12-20T07:14:23;7.70;99.90
38726;DHT22;24474;48.906;8.808;2022-12-20T07:16:48;7.80;99.90
38726;DHT22;24474;48.906;8.808;2022-12-20T07:19:14;7.70;99.90
38726;DHT22;24474;48.906;8.808;2022-12-20T07:21:41;7.70;99.90
38726;DHT22;24474;48.906;8.808;2022-12-20T07:24:08;7.80;99.90
38726;DHT22;24474;48.906;8.808;2022-12-20T07:26:34;7.80;99.90
38726;DHT22;24474;48.906;8.808;2022-12-20T07:29:00;7.80;99.90
38726;DHT22;24474;48.906;8.808;2022-12-20T07:31:26;7.80;99.90
38726;DHT22;24474;48.906;8.808;2022-12-20T07:33:52;7.80;99.90
38726;DHT22;24474;48.906;8.808;2022-12-20T07:36:18;7.90;99.90
38726;DHT22;24474;48.906;8.808;2022-12-20T07:38:43;7.80;99.90
38726;DHT22;24474;48.906;8.808;2022-12-20T07:41:11;7.90;99.90
38726;DHT22;24474;48.906;8.808;2022-12-20T07:43:37;8.00;99.90
38726;DHT22;24474;48.906;8.808;2022-12-20T07:46:04;8.00;99.90
38726;DHT22;24474;48.906;8.808;2022-12-20T07:48:31;8.00;99.90
38726;DHT22;24474;48.906;8.808;2022-12-20T07:51:03;8.00;99.90
38726;DHT22;24474;48.906;8.808;2022-12-20T07:53:31;8.00;99.90
38726;DHT22;24474;48.906;8.808;2022-12-20T07:56:00;8.00;99.90
38726;DHT22;24474;48.906;8.808;2022-12-20T07:58:28;8.00;99.90
38726;DHT22;24474;48.906;8.808;2022-12-20T08:00:55;8.20;99.90
38726;DHT22;24474;48.906;8.808;2022-12-20T08:03:29;8.00;99.90
38726;DHT22;24474;48.906;8.808;2022-12-20T08:05:59;8.00;99.90
38726;DHT22;24474;48.906;8.808;2022-12-20T08:08:30;8.10;99.90
38726;DHT22;24474;48.906;8.808;2022-12-20T08:10:57;8.10;99.90
38726;DHT22;24474;48.906;8.808;2022-12-20T08:13:23;8.00;99.90
38726;DHT22;24474;48.906;8.808;2022-12-20T08:15:49;8.10;99.90
38726;DHT22;24474;48.906;8.808;2022-12-20T08:18:14;8.00;99.90
38726;DHT22;24474;48.906;8.808;2022-12-20T08:20:40;8.10;99.90
38726;DHT22;24474;48.906;8.808;2022-12-20T08:23:06;8.20;99.90
38726;DHT22;24474;48.906;8.808;2022-12-20T08:25:33;8.10;99.90
38726;DHT22;24474;48.906;8.808;2022-12-20T08:27:59;8.10;99.90
38726;DHT22;24474;48.906;8.808;2022-12-20T08:30:27;8.20;99.90
38726;DHT22;24474;48.906;8.808;2022-12-20T08:32:53;8.20;99.90
38726;DHT22;24474;48.906;8.808;2022-12-20T08:35:19;8.20;99.90
38726;DHT22;24474;48.906;8.808;2022-12-20T08:37:45;8.20;99.90
38726;DHT22;24474;48.906;8.808;2022-12-20T08:40:10;8.20;99.90
38726;DHT22;24474;48.906;8.808;2022-12-20T08:42:36;8.20;99.90
38726;DHT22;24474;48.906;8.808;2022-12-20T08:45:03;8.30;99.90
38726;DHT22;24474;48.906;8.808;2022-12-20T08:47:29;8.20;99.90
38726;DHT22;24474;48.906;8.808;2022-12-20T08:49:55;8.30;99.90
38726;DHT22;24474;48.906;8.808;2022-12-20T08:52:33;8.30;99.90
38726;DHT22;24474;48.906;8.808;2022-12-20T08:54:58;8.20;99.90
38726;DHT22;24474;48.906;8.808;2022-12-20T08:57:24;8.30;99.90
38726;DHT22;24474;48.906;8.808;2022-12-20T08:59:50;8.20;99.90
38726;DHT22;24474;48.906;8.808;2022-12-20T09:02:15;8.30;99.90
38726;DHT22;24474;48.906;8.808;2022-12-20T09:04:41;8.40;99.90
38726;DHT22;24474;48.906;8.808;2022-12-20T09:07:11;8.40;99.90
38726;DHT22;24474;48.906;8.808;2022-12-20T09:09:36;8.40;99.90
38726;DHT22;24474;48.906;8.808;2022-12-20T09:12:02;8.40;99.90
38726;DHT22;24474;48.906;8.808;2022-12-20T09:14:28;8.40;99.90
38726;DHT22;24474;48.906;8.808;2022-12-20T09:16:53;8.40;99.90
38726;DHT22;24474;48.906;8.808;2022-12-20T09:19:19;8.60;99.90
38726;DHT22;24474;48.906;8.808;2022-12-20T09:21:45;8.50;99.90
38726;DHT22;24474;48.906;8.808;2022-12-20T09:24:10;8.50;99.90
38726;DHT22;24474;48.906;8.808;2022-12-20T09:26:36;8.50;99.90
38726;DHT22;24474;48.906;8.808;2022-12-20T09:29:03;8.60;99.90
38726;DHT22;24474;48.906;8.808;2022-12-20T09:31:29;8.50;99.90
38726;DHT22;24474;48.906;8.808;2022-12-20T09:33:56;8.60;99.90
38726;DHT22;24474;48.906;8.808;2022-12-20T09:36:24;8.60;99.90
38726;DHT22;24474;48.906;8.808;2022-12-20T09:38:51;8.60;99.90
38726;DHT22;24474;48.906;8.808;2022-12-20T09:41:43;8.70;99.90
38726;DHT22;24474;48.906;8.808;2022-12-20T09:44:19;8.70;99.90
38726;DHT22;24474;48.906;8.808;2022-12-20T09:46:55;8.70;99.90
38726;DHT22;24474;48.906;8.808;2022-12-20T09:49:27;8.70;99.90
38726;DHT22;24474;48.906;8.808;2022-12-20T09:52:05;8.70;99.90
38726;DHT22;24474;48.906;8.808;2022-12-20T09:58:02;8.60;99.90
38726;DHT22;24474;48.906;8.808;2022-12-20T10:00:45;8.60;99.90
38726;DHT22;24474;48.906;8.808;2022-12-20T10:03:35;8.60;99.90
38726;DHT22;24474;48.906;8.808;2022-12-20T10:09:16;8.60;99.90
38726;DHT22;24474;48.906;8.808;2022-12-20T10:12:00;8.60;99.90
38726;DHT22;24474;48.906;8.808;2022-12-20T10:18:11;8.70;99.90
38726;DHT22;24474;48.906;8.808;2022-12-20T10:21:10;8.70;99.90
38726;DHT22;24474;48.906;8.808;2022-12-20T10:24:04;8.80;99.90
38726;DHT22;24474;48.906;8.808;2022-12-20T10:26:33;8.80;99.90
38726;DHT22;24474;48.906;8.808;2022-12-20T10:28:59;8.90;99.90
38726;DHT22;24474;48.906;8.808;2022-12-20T10:31:26;8.80;99.90
38726;DHT22;24474;48.906;8.808;2022-12-20T10:33:54;8.90;99.90
38726;DHT22;24474;48.906;8.808;2022-12-20T10:36:31;8.90;99.90
38726;DHT22;24474;48.906;8.808;2022-12-20T10:39:03;8.90;99.90
38726;DHT22;24474;48.906;8.808;2022-12-20T10:44:28;9.00;99.90
38726;DHT22;24474;48.906;8.808;2022-12-20T10:46:57;9.00;99.90
38726;DHT22;24474;48.906;8.808;2022-12-20T10:52:12;9.10;99.90
38726;DHT22;24474;48.906;8.808;2022-12-20T10:54:41;9.10;99.90
38726;DHT22;24474;48.906;8.808;2022-12-20T10:57:22;9.10;99.90
38726;DHT22;24474;48.906;8.808;2022-12-20T11:00:15;9.10;99.90
38726;DHT22;24474;48.906;8.808;2022-12-20T11:03:21;9.20;99.90
38726;DHT22;24474;48.906;8.808;2022-12-20T11:06:02;9.20;99.90
38726;DHT22;24474;48.906;8.808;2022-12-20T11:08:32;9.20;99.90
38726;DHT22;24474;48.906;8.808;2022-12-20T11:11:21;9.30;99.90
38726;DHT22;24474;48.906;8.808;2022-12-20T11:14:12;9.30;99.90
38726;DHT22;24474;48.906;8.808;2022-12-20T11:16:41;9.30;99.90
38726;DHT22;24474;48.906;8.808;2022-12-20T11:22:33;9.30;99.90
38726;DHT22;24474;48.906;8.808;2022-12-20T11:42:58;9.30;99.90
38726;DHT22;24474;48.906;8.808;2022-12-20T11:49:01;9.40;99.90
38726;DHT22;24474;48.906;8.808;2022-12-20T11:54:31;9.40;99.90
38726;DHT22;24474;48.906;8.808;2022-12-20T11:57:20;9.40;99.90
38726;DHT22;24474;48.906;8.808;2022-12-20T11:59:59;9.50;99.90
38726;DHT22;24474;48.906;8.808;2022-12-20T12:02:44;9.50;99.90
38726;DHT22;24474;48.906;8.808;2022-12-20T12:08:08;9.50;99.90
38726;DHT22;24474;48.906;8.808;2022-12-20T12:10:40;9.50;99.90
38726;DHT22;24474;48.906;8.808;2022-12-20T12:13:20;9.50;99.90
38726;DHT22;24474;48.906;8.808;2022-12-20T12:16:01;9.50;99.90
38726;DHT22;24474;48.906;8.808;2022-12-20T12:18:33;9.50;99.90
38726;DHT22;24474;48.906;8.808;2022-12-20T12:21:36;9.50;99.90
38726;DHT22;24474;48.906;8.808;2022-12-20T12:24:23;9.50;99.90
38726;DHT22;24474;48.906;8.808;2022-12-20T12:26:51;9.50;99.90
38726;DHT22;24474;48.906;8.808;2022-12-20T12:29:19;9.50;99.90
38726;DHT22;24474;48.906;8.808;2022-12-20T12:38:03;9.50;99.90
38726;DHT22;24474;48.906;8.808;2022-12-20T12:46:32;9.60;99.90
38726;DHT22;24474;48.906;8.808;2022-12-20T12:49:05;9.70;99.90
38726;DHT22;24474;48.906;8.808;2022-12-20T12:51:54;9.60;99.90
38726;DHT22;24474;48.906;8.808;2022-12-20T12:54:29;9.70;99.90
38726;DHT22;24474;48.906;8.808;2022-12-20T12:57:02;9.70;99.90
38726;DHT22;24474;48.906;8.808;2022-12-20T13:04:51;9.70;99.90
38726;DHT22;24474;48.906;8.808;2022-12-20T13:25:42;9.80;99.90
38726;DHT22;24474;48.906;8.808;2022-12-20T13:33:49;9.70;99.90
38726;DHT22;24474;48.906;8.808;2022-12-20T13:36:46;9.70;99.90
38726;DHT22;24474;48.906;8.808;2022-12-20T13:39:32;9.70;99.90
38726;DHT22;24474;48.906;8.808;2022-12-20T13:44:43;9.70;99.90
38726;DHT22;24474;48.906;8.808;2022-12-20T13:47:37;9.70;99.90
38726;DHT22;24474;48.906;8.808;2022-12-20T13:50:30;9.70;99.90
38726;DHT22;24474;48.906;8.808;2022-12-20T13:52:56;9.70;99.90
38726;DHT22;24474;48.906;8.808;2022-12-20T13:55:37;9.70;99.90
38726;DHT22;24474;48.906;8.808;2022-12-20T13:58:16;9.70;99.90
38726;DHT22;24474;48.906;8.808;2022-12-20T14:00:44;9.70;99.90
38726;DHT22;24474;48.906;8.808;2022-12-20T14:03:29;9.70;99.90
38726;DHT22;24474;48.906;8.808;2022-12-20T14:06:00;9.70;99.90
38726;DHT22;24474;48.906;8.808;2022-12-20T14:08:28;9.70;99.90
38726;DHT22;24474;48.906;8.808;2022-12-20T14:10:54;9.70;99.90
38726;DHT22;24474;48.906;8.808;2022-12-20T14:13:24;9.70;99.90
38726;DHT22;24474;48.906;8.808;2022-12-20T14:15:51;9.70;99.90
38726;DHT22;24474;48.906;8.808;2022-12-20T14:18:22;9.80;99.90
38726;DHT22;24474;48.906;8.808;2022-12-20T14:20:52;9.80;99.90
38726;DHT22;24474;48.906;8.808;2022-12-20T14:23:22;9.70;99.90
38726;DHT22;24474;48.906;8.808;2022-12-20T14:25:55;9.70;99.90
38726;DHT22;24474;48.906;8.808;2022-12-20T14:28:28;9.70;99.90
38726;DHT22;24474;48.906;8.808;2022-12-20T14:30:58;9.70;99.90
38726;DHT22;24474;48.906;8.808;2022-12-20T14:33:35;9.70;99.90
38726;DHT22;24474;48.906;8.808;2022-12-20T14:36:15;9.70;99.90
38726;DHT22;24474;48.906;8.808;2022-12-20T14:38:46;9.70;99.90
38726;DHT22;24474;48.906;8.808;2022-12-20T14:41:45;9.70;99.90
38726;DHT22;24474;48.906;8.808;2022-12-20T14:44:20;9.70;99.90
38726;DHT22;24474;48.906;8.808;2022-12-20T14:51:48;9.70;99.90
38726;DHT22;24474;48.906;8.808;2022-12-20T14:54:27;9.70;99.90
38726;DHT22;24474;48.906;8.808;2022-12-20T14:56:53;9.70;99.90
38726;DHT22;24474;48.906;8.808;2022-12-20T14:59:25;9.70;99.90
38726;DHT22;24474;48.906;8.808;2022-12-20T15:01:52;9.70;99.90
38726;DHT22;24474;48.906;8.808;2022-12-20T15:04:31;9.70;99.90
38726;DHT22;24474;48.906;8.808;2022-12-20T15:06:58;9.70;99.90
38726;DHT22;24474;48.906;8.808;2022-12-20T15:09:24;9.70;99.90
38726;DHT22;24474;48.906;8.808;2022-12-20T15:11:50;9.70;99.90
38726;DHT22;24474;48.906;8.808;2022-12-20T15:14:35;9.70;99.90
38726;DHT22;24474;48.906;8.808;2022-12-20T15:17:14;9.80;99.90
38726;DHT22;24474;48.906;8.808;2022-12-20T15:19:43;9.70;99.90
38726;DHT22;24474;48.906;8.808;2022-12-20T15:22:13;9.70;99.90
38726;DHT22;24474;48.906;8.808;2022-12-20T15:24:41;9.70;99.90
38726;DHT22;24474;48.906;8.808;2022-12-20T15:27:16;9.70;99.90
38726;DHT22;24474;48.906;8.808;2022-12-20T15:29:42;9.70;99.90
38726;DHT22;24474;48.906;8.808;2022-12-20T15:32:24;9.60;99.90
38726;DHT22;24474;48.906;8.808;2022-12-20T15:34:54;9.70;99.90
38726;DHT22;24474;48.906;8.808;2022-12-20T15:37:19;9.60;99.90
38726;DHT22;24474;48.906;8.808;2022-12-20T15:39:48;9.60;99.90
38726;DHT22;24474;48.906;8.808;2022-12-20T15:42:16;9.60;99.90
38726;DHT22;24474;48.906;8.808;2022-12-20T15:44:43;9.60;99.90
38726;DHT22;24474;48.906;8.808;2022-12-20T15:47:12;9.60;99.90
38726;DHT22;24474;48.906;8.808;2022-12-20T15:49:39;9.60;99.90
38726;DHT22;24474;48.906;8.808;2022-12-20T15:52:04;9.60;99.90
38726;DHT22;24474;48.906;8.808;2022-12-20T15:54:33;9.60;99.90
38726;DHT22;24474;48.906;8.808;2022-12-20T15:57:03;9.60;99.90
38726;DHT22;24474;48.906;8.808;2022-12-20T15:59:29;9.60;99.90
38726;DHT22;24474;48.906;8.808;2022-12-20T16:01:55;9.60;99.90
38726;DHT22;24474;48.906;8.808;2022-12-20T16:04:21;9.60;99.90
38726;DHT22;24474;48.906;8.808;2022-12-20T16:06:48;9.60;99.90
38726;DHT22;24474;48.906;8.808;2022-12-20T16:09:15;9.60;99.90
38726;DHT22;24474;48.906;8.808;2022-12-20T16:11:42;9.60;99.90
38726;DHT22;24474;48.906;8.808;2022-12-20T16:14:20;9.60;99.90
38726;DHT22;24474;48.906;8.808;2022-12-20T16:16:46;9.60;99.90
38726;DHT22;24474;48.906;8.808;2022-12-20T16:19:13;9.60;99.90
38726;DHT22;24474;48.906;8.808;2022-12-20T16:21:50;9.60;99.90
38726;DHT22;24474;48.906;8.808;2022-12-20T16:24:18;9.50;99.90
38726;DHT22;24474;48.906;8.808;2022-12-20T16:26:45;9.60;99.90
38726;DHT22;24474;48.906;8.808;2022-12-20T16:29:11;9.60;99.90
38726;DHT22;24474;48.906;8.808;2022-12-20T16:31:38;9.60;99.90
38726;DHT22;24474;48.906;8.808;2022-12-20T16:34:08;9.70;99.90
38726;DHT22;24474;48.906;8.808;2022-12-20T16:36:36;9.60;99.90
38726;DHT22;24474;48.906;8.808;2022-12-20T16:39:03;9.60;99.90
38726;DHT22;24474;48.906;8.808;2022-12-20T16:41:30;9.60;99.90
38726;DHT22;24474;48.906;8.808;2022-12-20T16:43:58;9.60;99.90
38726;DHT22;24474;48.906;8.808;2022-12-20T16:46:26;9.60;99.90
38726;DHT22;24474;48.906;8.808;2022-12-20T16:48:52;9.70;99.90
38726;DHT22;24474;48.906;8.808;2022-12-20T16:54:02;9.60;99.90
38726;DHT22;24474;48.906;8.808;2022-12-20T16:56:28;9.60;99.90
38726;DHT22;24474;48.906;8.808;2022-12-20T16:58:55;9.70;99.90
38726;DHT22;24474;48.906;8.808;2022-12-20T17:01:27;9.60;99.90
38726;DHT22;24474;48.906;8.808;2022-12-20T17:03:53;9.70;99.90
38726;DHT22;24474;48.906;8.808;2022-12-20T17:06:19;9.70;99.90
38726;DHT22;24474;48.906;8.808;2022-12-20T17:08:45;9.70;99.90
38726;DHT22;24474;48.906;8.808;2022-12-20T17:11:21;9.70;99.90
38726;DHT22;24474;48.906;8.808;2022-12-20T17:13:49;9.60;99.90
38726;DHT22;24474;48.906;8.808;2022-12-20T17:16:15;9.60;99.90
38726;DHT22;24474;48.906;8.808;2022-12-20T17:18:43;9.80;99.90
38726;DHT22;24474;48.906;8.808;2022-12-20T17:24:06;9.70;99.90
38726;DHT22;24474;48.906;8.808;2022-12-20T17:26:38;9.60;99.90
38726;DHT22;24474;48.906;8.808;2022-12-20T17:29:10;9.60;99.90
38726;DHT22;24474;48.906;8.808;2022-12-20T17:31:38;9.70;99.90
38726;DHT22;24474;48.906;8.808;2022-12-20T17:34:21;9.70;99.90
38726;DHT22;24474;48.906;8.808;2022-12-20T17:36:47;9.70;99.90
38726;DHT22;24474;48.906;8.808;2022-12-20T17:39:21;9.80;99.90
38726;DHT22;24474;48.906;8.808;2022-12-20T17:41:48;9.70;99.90
38726;DHT22;24474;48.906;8.808;2022-12-20T17:44:22;9.70;99.90
38726;DHT22;24474;48.906;8.808;2022-12-20T17:46:48;9.70;99.90
38726;DHT22;24474;48.906;8.808;2022-12-20T17:49:14;9.70;99.90
38726;DHT22;24474;48.906;8.808;2022-12-20T17:51:41;9.70;99.90
38726;DHT22;24474;48.906;8.808;2022-12-20T17:54:21;9.70;99.90
38726;DHT22;24474;48.906;8.808;2022-12-20T17:56:47;9.70;99.90
38726;DHT22;24474;48.906;8.808;2022-12-20T17:59:14;9.70;99.90
38726;DHT22;24474;48.906;8.808;2022-12-20T18:01:40;9.70;99.90